Menu Close Menu
Station Historical Data
Daily Summary for October 13, 2017 Units:  Metric    English   Both
« Previous Day
Next Day »
Daily Weekly Monthly Yearly Custom
  High: Low: Average:
Temperature: 26.4 °C 15.8 °C 21.7 °C
Dew Point: 22 °C 14.5 °C 19.2 °C
Humidity: 94% 75% 86%
Wind Speed: 22.5km/h 3.2km/h 9.7km/h
Wind Gust: 22.5km/h - -
Wind- - SE
Pressure: 1023.9 hPa 1019.5 hPa -
Precipitation: 0 mm    
Historical Graphs
 
 
Tabular Data for October 13, 2017
Time Temperature Dew Point Pressure Wind Wind Speed Wind Gust Humidity Rainfall Rate (Hourly) solar Conditions
00:00 17 °C 15.3 °C 1019.5 hPa North 3.2 km/h 3.2 km/h 90% 0 mm WeatherDisplay:10.37 W/m2 CLR
00:05 17 °C 15.3 °C 1019.5 hPa North 3.2 km/h 3.2 km/h 90% 0 mm WeatherDisplay:10.37 W/m2 CLR
00:10 16.9 °C 15.3 °C 1019.5 hPa North 3.2 km/h 3.2 km/h 90% 0 mm WeatherDisplay:10.37 W/m2 CLR
00:15 16.8 °C 15.2 °C 1019.5 hPa North 3.2 km/h 3.2 km/h 90% 0 mm WeatherDisplay:10.37 W/m2 CLR
00:20 16.8 °C 15.1 °C 1019.5 hPa North 3.2 km/h 3.2 km/h 90% 0 mm WeatherDisplay:10.37 W/m2 CLR
00:25 16.7 °C 15.1 °C 1019.5 hPa North 3.2 km/h 3.2 km/h 90% 0 mm WeatherDisplay:10.37 W/m2 CLR
00:30 16.7 °C 15 °C 1019.5 hPa North 3.2 km/h 3.2 km/h 90% 0 mm WeatherDisplay:10.37 W/m2 CLR
00:35 16.6 °C 14.9 °C 1019.5 hPa North 3.2 km/h 3.2 km/h 90% 0 mm WeatherDisplay:10.37 W/m2 CLR
00:40 16.6 °C 14.9 °C 1019.5 hPa North 3.2 km/h 3.2 km/h 90% 0 mm WeatherDisplay:10.37 W/m2 CLR
00:45 16.6 °C 15.1 °C 1019.5 hPa North 3.2 km/h 3.2 km/h 91% 0 mm WeatherDisplay:10.37 W/m2 CLR
00:50 16.6 °C 15.1 °C 1019.5 hPa North 3.2 km/h 3.2 km/h 91% 0 mm WeatherDisplay:10.37 W/m2 CLR
00:55 16.5 °C 15.1 °C 1019.5 hPa North 3.2 km/h 3.2 km/h 91% 0 mm WeatherDisplay:10.37 W/m2 CLR
01:00 16.4 °C 15 °C 1019.5 hPa North 3.2 km/h 3.2 km/h 91% 0 mm WeatherDisplay:10.37 W/m2 CLR
01:05 16.4 °C 14.9 °C 1019.5 hPa North 3.2 km/h 3.2 km/h 91% 0 mm WeatherDisplay:10.37 W/m2 CLR
01:10 16.4 °C 14.9 °C 1019.5 hPa North 3.2 km/h 3.2 km/h 91% 0 mm WeatherDisplay:10.37 W/m2 CLR
01:15 16.3 °C 14.8 °C 1019.5 hPa North 3.2 km/h 3.2 km/h 91% 0 mm WeatherDisplay:10.37 W/m2 CLR
01:20 16.3 °C 14.8 °C 1019.5 hPa North 3.2 km/h 3.2 km/h 91% 0 mm WeatherDisplay:10.37 W/m2 CLR
01:25 16.3 °C 14.8 °C 1019.5 hPa North 3.2 km/h 3.2 km/h 91% 0 mm WeatherDisplay:10.37 W/m2 CLR
01:30 16.3 °C 14.8 °C 1019.5 hPa North 3.2 km/h 3.2 km/h 91% 0 mm WeatherDisplay:10.37 W/m2 CLR
01:40 16.2 °C 14.8 °C 1019.5 hPa North 3.2 km/h 3.2 km/h 91% 0 mm WeatherDisplay:10.37 W/m2 CLR
01:45 16.2 °C 14.7 °C 1019.5 hPa North 3.2 km/h 3.2 km/h 91% 0 mm WeatherDisplay:10.37 W/m2 CLR
01:50 16.2 °C 14.7 °C 1019.5 hPa North 3.2 km/h 3.2 km/h 91% 0 mm WeatherDisplay:10.37 W/m2 CLR
01:55 16.1 °C 14.7 °C 1019.5 hPa North 3.2 km/h 3.2 km/h 91% 0 mm WeatherDisplay:10.37 W/m2 CLR
02:00 16.1 °C 14.7 °C 1019.9 hPa North 3.2 km/h 3.2 km/h 91% 0 mm WeatherDisplay:10.37 W/m2 CLR
02:05 16.1 °C 14.6 °C 1019.9 hPa North 3.2 km/h 3.2 km/h 91% 0 mm WeatherDisplay:10.37 W/m2 CLR
02:10 16 °C 14.6 °C 1019.9 hPa North 3.2 km/h 3.2 km/h 91% 0 mm WeatherDisplay:10.37 W/m2 CLR
02:15 15.9 °C 14.5 °C 1019.9 hPa North 3.2 km/h 3.2 km/h 91% 0 mm WeatherDisplay:10.37 W/m2 CLR
02:20 15.9 °C 14.6 °C 1019.9 hPa North 3.2 km/h 3.2 km/h 92% 0 mm WeatherDisplay:10.37 W/m2 CLR
02:25 15.9 °C 14.6 °C 1019.9 hPa North 3.2 km/h 3.2 km/h 92% 0 mm WeatherDisplay:10.37 W/m2 CLR
02:30 15.9 °C 14.6 °C 1019.9 hPa North 3.2 km/h 3.2 km/h 92% 0 mm WeatherDisplay:10.37 W/m2 CLR
02:35 15.8 °C 14.6 °C 1019.9 hPa North 3.2 km/h 3.2 km/h 92% 0 mm WeatherDisplay:10.37 W/m2 CLR
02:40 15.8 °C 14.5 °C 1019.9 hPa North 3.2 km/h 3.2 km/h 92% 0 mm WeatherDisplay:10.37 W/m2 CLR
02:45 15.8 °C 14.5 °C 1019.9 hPa North 3.2 km/h 3.2 km/h 92% 0 mm WeatherDisplay:10.37 W/m2 CLR
02:50 15.9 °C 14.6 °C 1019.9 hPa North 3.2 km/h 3.2 km/h 92% 0 mm WeatherDisplay:10.37 W/m2 CLR
02:55 15.9 °C 14.7 °C 1019.9 hPa North 3.2 km/h 3.2 km/h 92% 0 mm WeatherDisplay:10.37 W/m2 CLR
03:00 16 °C 14.7 °C 1019.9 hPa North 3.2 km/h 3.2 km/h 92% 0 mm WeatherDisplay:10.37 W/m2 CLR
03:05 16 °C 14.7 °C 1019.9 hPa North 3.2 km/h 3.2 km/h 92% 0 mm WeatherDisplay:10.37 W/m2 CLR
03:10 16 °C 14.7 °C 1019.9 hPa North 3.2 km/h 3.2 km/h 92% 0 mm WeatherDisplay:10.37 W/m2 CLR
03:15 16.1 °C 14.8 °C 1019.9 hPa NNE 4.8 km/h 4.8 km/h 92% 0 mm WeatherDisplay:10.37 W/m2 CLR
03:20 16.2 °C 14.8 °C 1019.9 hPa NE 4.8 km/h 4.8 km/h 92% 0 mm WeatherDisplay:10.37 W/m2 CLR
03:25 16.3 °C 14.9 °C 1019.9 hPa NE 4.8 km/h 4.8 km/h 92% 0 mm WeatherDisplay:10.37 W/m2 CLR
03:30 16.4 °C 15.1 °C 1019.9 hPa NE 4.8 km/h 4.8 km/h 92% 0 mm WeatherDisplay:10.37 W/m2 CLR
03:40 16.4 °C 14.9 °C 1019.9 hPa NE 4.8 km/h 4.8 km/h 91% 0 mm WeatherDisplay:10.37 W/m2 CLR
03:45 16.3 °C 14.9 °C 1020.2 hPa NE 4.8 km/h 4.8 km/h 91% 0 mm WeatherDisplay:10.37 W/m2 CLR
03:50 16.4 °C 14.9 °C 1020.2 hPa NE 4.8 km/h 4.8 km/h 91% 0 mm WeatherDisplay:10.37 W/m2 CLR
03:55 16.6 °C 15.3 °C 1019.9 hPa NE 4.8 km/h 4.8 km/h 92% 0 mm WeatherDisplay:10.37 W/m2 CLR
04:00 16.7 °C 15.4 °C 1020.2 hPa NE 4.8 km/h 4.8 km/h 92% 0 mm WeatherDisplay:10.37 W/m2 CLR
04:05 16.8 °C 15.4 °C 1020.2 hPa NE 4.8 km/h 4.8 km/h 92% 0 mm WeatherDisplay:10.37 W/m2 CLR
04:10 16.9 °C 15.8 °C 1020.2 hPa NE 4.8 km/h 4.8 km/h 93% 0 mm WeatherDisplay:10.37 W/m2 CLR
04:15 17.3 °C 16.2 °C 1020.2 hPa NE 4.8 km/h 4.8 km/h 93% 0 mm WeatherDisplay:10.37 W/m2 CLR
04:20 17.6 °C 16.7 °C 1020.2 hPa NE 4.8 km/h 4.8 km/h 94% 0 mm WeatherDisplay:10.37 W/m2 CLR
04:25 17.9 °C 16.9 °C 1020.2 hPa NNE 4.8 km/h 4.8 km/h 94% 0 mm WeatherDisplay:10.37 W/m2 FEW
04:30 18.1 °C 16.9 °C 1020.2 hPa North 4.8 km/h 4.8 km/h 93% 0 mm WeatherDisplay:10.37 W/m2 FEW
04:35 18.3 °C 17.2 °C 1020.2 hPa North 4.8 km/h 4.8 km/h 93% 0 mm WeatherDisplay:10.37 W/m2 FEW
04:40 18.5 °C 17.3 °C 1020.2 hPa North 4.8 km/h 4.8 km/h 93% 0 mm WeatherDisplay:10.37 W/m2 FEW
04:45 18.6 °C 17.4 °C 1020.2 hPa North 4.8 km/h 4.8 km/h 93% 0 mm WeatherDisplay:10.37 W/m2 FEW
04:50 18.7 °C 17.6 °C 1020.2 hPa North 4.8 km/h 4.8 km/h 93% 0 mm WeatherDisplay:10.37 W/m2 FEW
04:55 18.9 °C 17.7 °C 1020.2 hPa North 4.8 km/h 4.8 km/h 93% 0 mm WeatherDisplay:10.37 W/m2 FEW
05:00 19 °C 17.8 °C 1020.2 hPa North 4.8 km/h 4.8 km/h 93% 0 mm WeatherDisplay:10.37 W/m2 FEW
05:05 19.2 °C 18 °C 1020.2 hPa North 4.8 km/h 4.8 km/h 93% 0 mm WeatherDisplay:10.37 W/m2 FEW
05:10 19.2 °C 18.1 °C 1020.5 hPa North 4.8 km/h 4.8 km/h 93% 0 mm WeatherDisplay:10.37 W/m2 FEW
05:15 19.4 °C 18.4 °C 1020.5 hPa NE 4.8 km/h 4.8 km/h 94% 0 mm WeatherDisplay:10.37 W/m2 OVC
05:20 19.5 °C 18.3 °C 1020.5 hPa ENE 4.8 km/h 4.8 km/h 93% 0 mm WeatherDisplay:10.37 W/m2 OVC
05:25 19.6 °C 18.4 °C 1020.5 hPa ENE 4.8 km/h 4.8 km/h 93% 0 mm WeatherDisplay:10.37 W/m2 OVC
05:30 19.6 °C 18.4 °C 1020.5 hPa ENE 4.8 km/h 4.8 km/h 93% 0 mm WeatherDisplay:10.37 W/m2 OVC
05:40 19.7 °C 18.6 °C 1020.5 hPa ENE 4.8 km/h 4.8 km/h 93% 0 mm WeatherDisplay:10.37 W/m2 OVC
05:45 19.8 °C 18.6 °C 1020.5 hPa ENE 4.8 km/h 4.8 km/h 93% 0 mm WeatherDisplay:10.37 W/m2 OVC
05:50 19.8 °C 18.7 °C 1020.9 hPa ENE 4.8 km/h 4.8 km/h 93% 0 mm WeatherDisplay:10.37 W/m2 OVC
05:55 19.9 °C 18.8 °C 1020.9 hPa ENE 4.8 km/h 4.8 km/h 93% 0 mm WeatherDisplay:10.37 W/m2 OVC
06:00 20.1 °C 18.9 °C 1020.9 hPa ENE 4.8 km/h 4.8 km/h 93% 0 mm WeatherDisplay:10.37 W/m2 OVC
06:05 20.1 °C 18.9 °C 1020.9 hPa ENE 4.8 km/h 4.8 km/h 93% 0 mm WeatherDisplay:10.37 W/m2 OVC
06:10 20.3 °C 19.1 °C 1020.9 hPa ENE 4.8 km/h 4.8 km/h 93% 0 mm WeatherDisplay:10.37 W/m2 OVC
06:15 20.4 °C 19.2 °C 1020.9 hPa ENE 9.7 km/h 9.7 km/h 93% 0 mm WeatherDisplay:10.37 W/m2 OVC
06:20 20.6 °C 19.3 °C 1020.9 hPa East 9.7 km/h 9.7 km/h 93% 0 mm WeatherDisplay:10.37 W/m2 OVC
06:25 20.6 °C 19.4 °C 1021.2 hPa East 12.9 km/h 12.9 km/h 93% 0 mm WeatherDisplay:10.37 W/m2 OVC
06:30 20.7 °C 19.5 °C 1020.9 hPa East 12.9 km/h 12.9 km/h 93% 0 mm WeatherDisplay:10.37 W/m2 OVC
06:40 20.8 °C 19.6 °C 1021.2 hPa East 12.9 km/h 12.9 km/h 93% 0 mm WeatherDisplay:10.37 W/m2 OVC
06:45 20.8 °C 19.7 °C 1021.2 hPa East 11.3 km/h 12.9 km/h 93% 0 mm WeatherDisplay:10.37 W/m2 BKN
06:50 20.9 °C 19.8 °C 1021.2 hPa East 11.3 km/h 11.3 km/h 93% 0 mm WeatherDisplay:10.37 W/m2 BKN
06:55 20.9 °C 19.6 °C 1021.2 hPa East 11.3 km/h 11.3 km/h 92% 0 mm WeatherDisplay:10.37 W/m2 OVC
07:00 21 °C 19.7 °C 1021.2 hPa East 11.3 km/h 11.3 km/h 92% 0 mm WeatherDisplay:10.37 W/m2 OVC
07:05 21.1 °C 19.7 °C 1021.2 hPa East 11.3 km/h 11.3 km/h 92% 0 mm WeatherDisplay:10.37 W/m2 OVC
07:10 21.1 °C 19.7 °C 1021.2 hPa East 11.3 km/h 11.3 km/h 92% 0 mm WeatherDisplay:10.37 W/m2 OVC
07:15 21.1 °C 19.7 °C 1021.2 hPa ENE 11.3 km/h 11.3 km/h 92% 0 mm WeatherDisplay:10.37 W/m2 OVC
07:20 21.1 °C 19.8 °C 1021.6 hPa ENE 11.3 km/h 11.3 km/h 92% 0 mm WeatherDisplay:10.37 W/m2 OVC
07:25 21.2 °C 19.8 °C 1021.6 hPa ENE 11.3 km/h 11.3 km/h 92% 0 mm WeatherDisplay:10.37 W/m2 OVC
07:30 21.2 °C 19.6 °C 1021.6 hPa ENE 11.3 km/h 11.3 km/h 91% 0 mm WeatherDisplay:10.37 W/m2 OVC
07:35 21.2 °C 19.6 °C 1021.6 hPa ENE 11.3 km/h 11.3 km/h 91% 0 mm WeatherDisplay:10.37 W/m2 OVC
07:40 21.2 °C 19.7 °C 1021.6 hPa ENE 11.3 km/h 11.3 km/h 91% 0 mm WeatherDisplay:10.37 W/m2 OVC
07:45 21.2 °C 19.7 °C 1021.6 hPa ENE 11.3 km/h 11.3 km/h 91% 0 mm WeatherDisplay:10.37 W/m2 OVC
07:50 21.2 °C 19.7 °C 1021.6 hPa ENE 11.3 km/h 11.3 km/h 91% 0 mm WeatherDisplay:10.37 W/m2 OVC
07:55 21.2 °C 19.7 °C 1021.6 hPa ENE 11.3 km/h 11.3 km/h 91% 0 mm WeatherDisplay:10.37 W/m2 OVC
08:00 21.3 °C 19.7 °C 1021.6 hPa ENE 11.3 km/h 11.3 km/h 91% 0 mm WeatherDisplay:10.37 W/m2 OVC
08:05 21.3 °C 19.7 °C 1021.9 hPa ENE 11.3 km/h 11.3 km/h 91% 0 mm WeatherDisplay:10.37 W/m2 OVC
08:10 21.3 °C 19.7 °C 1021.9 hPa ENE 11.3 km/h 11.3 km/h 91% 0 mm WeatherDisplay:10.37 W/m2 OVC
08:15 21.3 °C 19.8 °C 1021.9 hPa ENE 9.7 km/h 11.3 km/h 91% 0 mm WeatherDisplay:10.37 W/m2 OVC
08:20 21.3 °C 19.6 °C 1021.9 hPa East 9.7 km/h 9.7 km/h 90% 0 mm WeatherDisplay:10.37 W/m2 OVC
08:25 21.4 °C 19.7 °C 1021.9 hPa North 9.7 km/h 9.7 km/h 90% 0 mm WeatherDisplay:10.37 W/m2 OVC
08:30 21.4 °C 19.7 °C 1021.9 hPa West 9.7 km/h 9.7 km/h 90% 0 mm WeatherDisplay:10.37 W/m2 OVC
08:40 21.4 °C 19.7 °C 1021.9 hPa West 9.7 km/h 9.7 km/h 90% 0 mm WeatherDisplay:10.37 W/m2 OVC
08:45 21.5 °C 19.8 °C 1022.2 hPa West 9.7 km/h 9.7 km/h 90% 0 mm WeatherDisplay:10.37 W/m2 OVC
08:50 21.5 °C 19.8 °C 1022.2 hPa WNW 9.7 km/h 9.7 km/h 90% 0 mm WeatherDisplay:10.37 W/m2 OVC
08:55 21.6 °C 19.8 °C 1022.2 hPa ENE 11.3 km/h 11.3 km/h 90% 0 mm WeatherDisplay:10.37 W/m2 OVC
09:00 21.6 °C 19.9 °C 1022.2 hPa East 11.3 km/h 11.3 km/h 90% 0 mm WeatherDisplay:10.37 W/m2 OVC
09:05 21.7 °C 19.9 °C 1022.2 hPa East 11.3 km/h 11.3 km/h 90% 0 mm WeatherDisplay:10.37 W/m2 OVC
09:10 21.7 °C 20 °C 1022.2 hPa East 11.3 km/h 11.3 km/h 90% 0 mm WeatherDisplay:10.37 W/m2 OVC
09:15 21.8 °C 20.1 °C 1022.2 hPa East 8 km/h 11.3 km/h 90% 0 mm WeatherDisplay:10.37 W/m2 OVC
09:20 21.8 °C 20.1 °C 1022.6 hPa East 8 km/h 8 km/h 90% 0 mm WeatherDisplay:10.37 W/m2 OVC
09:25 21.9 °C 20 °C 1022.6 hPa East 8 km/h 8 km/h 89% 0 mm WeatherDisplay:10.37 W/m2 OVC
09:30 21.9 °C 20.1 °C 1022.6 hPa East 8 km/h 8 km/h 89% 0 mm WeatherDisplay:10.37 W/m2 OVC
09:35 22.1 °C 20.2 °C 1022.6 hPa East 8 km/h 8 km/h 89% 0 mm WeatherDisplay:10.37 W/m2 OVC
09:40 22.1 °C 20.2 °C 1022.6 hPa East 8 km/h 8 km/h 89% 0 mm WeatherDisplay:10.37 W/m2 OVC
09:45 22.2 °C 20.1 °C 1022.6 hPa East 8 km/h 8 km/h 88% 0 mm WeatherDisplay:10.37 W/m2 OVC
09:50 22.3 °C 20.2 °C 1022.9 hPa East 8 km/h 8 km/h 88% 0 mm WeatherDisplay:10.37 W/m2 OVC
09:55 22.3 °C 20.1 °C 1022.9 hPa East 8 km/h 8 km/h 87% 0 mm WeatherDisplay:10.37 W/m2 OVC
10:00 22.4 °C 20.2 °C 1022.9 hPa East 8 km/h 8 km/h 87% 0 mm WeatherDisplay:10.37 W/m2 OVC
10:05 22.5 °C 20.1 °C 1022.9 hPa East 8 km/h 8 km/h 86% 0 mm WeatherDisplay:10.37 W/m2 OVC
10:10 22.6 °C 20.2 °C 1022.9 hPa East 8 km/h 8 km/h 86% 0 mm WeatherDisplay:10.37 W/m2 OVC
10:15 22.7 °C 20.3 °C 1022.9 hPa East 16.1 km/h 16.1 km/h 86% 0 mm WeatherDisplay:10.37 W/m2 BKN
10:20 22.8 °C 20.4 °C 1022.9 hPa East 16.1 km/h 16.1 km/h 86% 0 mm WeatherDisplay:10.37 W/m2 BKN
10:25 22.9 °C 20.3 °C 1023.2 hPa East 16.1 km/h 16.1 km/h 85% 0 mm WeatherDisplay:10.37 W/m2 BKN
10:30 23.1 °C 20.2 °C 1023.2 hPa East 16.1 km/h 16.1 km/h 84% 0 mm WeatherDisplay:10.37 W/m2 BKN
10:35 23.1 °C 20.3 °C 1023.2 hPa East 16.1 km/h 16.1 km/h 84% 0 mm WeatherDisplay:10.37 W/m2 BKN
10:40 23.3 °C 20.4 °C 1023.2 hPa East 16.1 km/h 16.1 km/h 84% 0 mm WeatherDisplay:10.37 W/m2 BKN
10:45 23.6 °C 20.7 °C 1023.2 hPa East 16.1 km/h 16.1 km/h 84% 0 mm WeatherDisplay:10.37 W/m2 BKN
10:50 23.6 °C 20.5 °C 1023.2 hPa East 16.1 km/h 16.1 km/h 83% 0 mm WeatherDisplay:10.37 W/m2 BKN
11:00 23.9 °C 20.7 °C 1023.2 hPa East 16.1 km/h 16.1 km/h 82% 0 mm WeatherDisplay:10.37 W/m2 BKN
11:05 24.1 °C 20.6 °C 1023.2 hPa East 16.1 km/h 16.1 km/h 81% 0 mm WeatherDisplay:10.37 W/m2 BKN
11:10 24.3 °C 20.7 °C 1023.2 hPa East 16.1 km/h 16.1 km/h 80% 0 mm WeatherDisplay:10.37 W/m2 BKN
11:15 24.4 °C 20.8 °C 1023.2 hPa East 16.1 km/h 16.1 km/h 80% 0 mm WeatherDisplay:10.37 W/m2 BKN
11:20 24.7 °C 21 °C 1023.2 hPa East 16.1 km/h 16.1 km/h 80% 0 mm WeatherDisplay:10.37 W/m2 BKN
11:25 24.8 °C 20.9 °C 1023.2 hPa East 16.1 km/h 16.1 km/h 79% 0 mm WeatherDisplay:10.37 W/m2 BKN
11:30 24.8 °C 20.9 °C 1023.2 hPa East 16.1 km/h 16.1 km/h 79% 0 mm WeatherDisplay:10.37 W/m2 BKN
11:35 25.2 °C 21.1 °C 1023.2 hPa East 16.1 km/h 16.1 km/h 78% 0 mm WeatherDisplay:10.37 W/m2 BKN
11:40 25.3 °C 21.2 °C 1023.2 hPa East 16.1 km/h 16.1 km/h 78% 0 mm WeatherDisplay:10.37 W/m2 BKN
11:45 25.2 °C 21.1 °C 1023.2 hPa East 16.1 km/h 16.1 km/h 78% 0 mm WeatherDisplay:10.37 W/m2 BKN
11:55 25 °C 21.1 °C 1023.2 hPa East 16.1 km/h 16.1 km/h 79% 0 mm WeatherDisplay:10.37 W/m2 BKN
12:00 24.9 °C 21.1 °C 1023.2 hPa East 16.1 km/h 16.1 km/h 79% 0 mm WeatherDisplay:10.37 W/m2 BKN
12:05 25 °C 21.3 °C 1023.2 hPa East 16.1 km/h 16.1 km/h 80% 0 mm WeatherDisplay:10.37 W/m2 BKN
12:10 24.9 °C 21.1 °C 1023.2 hPa East 16.1 km/h 16.1 km/h 79% 0 mm WeatherDisplay:10.37 W/m2 BKN
12:15 24.8 °C 21.1 °C 1023.2 hPa East 14.5 km/h 16.1 km/h 80% 0 mm WeatherDisplay:10.37 W/m2 OVC
12:20 24.6 °C 21.1 °C 1023.2 hPa East 14.5 km/h 14.5 km/h 81% 0 mm WeatherDisplay:10.37 W/m2 OVC
12:25 24.3 °C 21.1 °C 1023.2 hPa East 14.5 km/h 14.5 km/h 82% 0 mm WeatherDisplay:10.37 W/m2 OVC
12:30 24.1 °C 20.8 °C 1023.2 hPa East 14.5 km/h 14.5 km/h 82% 0 mm WeatherDisplay:10.37 W/m2 OVC
12:35 24.1 °C 21.2 °C 1023.2 hPa East 14.5 km/h 14.5 km/h 84% 0 mm WeatherDisplay:10.37 W/m2 OVC
12:40 24.1 °C 21.2 °C 1023.2 hPa East 14.5 km/h 14.5 km/h 84% 0 mm WeatherDisplay:10.37 W/m2 OVC
12:45 24.1 °C 21 °C 1023.2 hPa East 14.5 km/h 14.5 km/h 83% 0 mm WeatherDisplay:10.37 W/m2 OVC
12:50 23.9 °C 21.1 °C 1023.2 hPa East 14.5 km/h 14.5 km/h 84% 0 mm WeatherDisplay:10.37 W/m2 OVC
12:55 23.9 °C 21 °C 1023.2 hPa East 14.5 km/h 14.5 km/h 84% 0 mm WeatherDisplay:10.37 W/m2 OVC
13:00 23.8 °C 20.9 °C 1023.2 hPa East 14.5 km/h 14.5 km/h 84% 0 mm WeatherDisplay:10.37 W/m2 OVC
13:05 23.6 °C 20.8 °C 1022.9 hPa East 14.5 km/h 14.5 km/h 84% 0 mm WeatherDisplay:10.37 W/m2 OVC
13:10 23.6 °C 20.9 °C 1022.9 hPa East 14.5 km/h 14.5 km/h 85% 0 mm WeatherDisplay:10.37 W/m2 OVC
13:15 23.6 °C 21.1 °C 1022.9 hPa ESE 22.5 km/h 22.5 km/h 86% 0 mm WeatherDisplay:10.37 W/m2 -RA
13:20 23.6 °C 21.1 °C 1022.9 hPa ESE 22.5 km/h 22.5 km/h 86% 0 mm WeatherDisplay:10.37 W/m2 -RA
13:25 23.6 °C 21.1 °C 1022.9 hPa ESE 22.5 km/h 22.5 km/h 86% 0 mm WeatherDisplay:10.37 W/m2 -RA
13:30 23.7 °C 21.2 °C 1022.6 hPa ESE 22.5 km/h 22.5 km/h 86% 0 mm WeatherDisplay:10.37 W/m2 -RA
13:35 24.2 °C 21.7 °C 1022.6 hPa ESE 22.5 km/h 22.5 km/h 86% 0 mm WeatherDisplay:10.37 W/m2 -RA
13:40 24.6 °C 21.4 °C 1022.6 hPa ESE 22.5 km/h 22.5 km/h 83% 0 mm WeatherDisplay:10.37 W/m2 -RA
13:50 24.8 °C 21.3 °C 1022.2 hPa East 11.3 km/h 11.3 km/h 81% 0 mm WeatherDisplay:10.37 W/m2 BKN
13:55 24.5 °C 21.2 °C 1022.2 hPa East 11.3 km/h 11.3 km/h 82% 0 mm WeatherDisplay:10.37 W/m2 BKN
14:00 24.3 °C 21.1 °C 1022.2 hPa East 11.3 km/h 11.3 km/h 82% 0 mm WeatherDisplay:10.37 W/m2 BKN
14:05 24.3 °C 21 °C 1022.2 hPa East 11.3 km/h 11.3 km/h 82% 0 mm WeatherDisplay:10.37 W/m2 BKN
14:10 24.2 °C 20.9 °C 1022.2 hPa East 11.3 km/h 11.3 km/h 82% 0 mm WeatherDisplay:10.37 W/m2 BKN
14:15 24.3 °C 21.2 °C 1021.9 hPa East 9.7 km/h 11.3 km/h 83% 0 mm WeatherDisplay:10.37 W/m2 OVC
14:20 24.7 °C 21.7 °C 1021.9 hPa East 9.7 km/h 9.7 km/h 83% 0 mm WeatherDisplay:10.37 W/m2 OVC
14:25 25 °C 21.3 °C 1021.9 hPa ESE 14.5 km/h 14.5 km/h 80% 0 mm WeatherDisplay:10.37 W/m2 OVC
14:30 25.1 °C 21.2 °C 1021.9 hPa ESE 14.5 km/h 14.5 km/h 79% 0 mm WeatherDisplay:10.37 W/m2 OVC
14:35 25.2 °C 21.5 °C 1021.9 hPa ESE 14.5 km/h 14.5 km/h 80% 0 mm WeatherDisplay:10.37 W/m2 OVC
14:40 25.4 °C 21.3 °C 1021.9 hPa ESE 14.5 km/h 14.5 km/h 78% 0 mm WeatherDisplay:10.37 W/m2 OVC
14:45 25.7 °C 21.8 °C 1021.9 hPa ESE 14.5 km/h 14.5 km/h 79% 0 mm WeatherDisplay:10.37 W/m2 BKN
14:50 26 °C 21.7 °C 1021.6 hPa ESE 14.5 km/h 14.5 km/h 77% 0 mm WeatherDisplay:10.37 W/m2 BKN
14:55 26.4 °C 22 °C 1021.6 hPa ESE 14.5 km/h 14.5 km/h 77% 0 mm WeatherDisplay:10.37 W/m2 BKN
15:00 26.4 °C 21.9 °C 1021.6 hPa ESE 14.5 km/h 14.5 km/h 76% 0 mm WeatherDisplay:10.37 W/m2 BKN
15:05 26.2 °C 21.7 °C 1021.6 hPa ESE 14.5 km/h 14.5 km/h 76% 0 mm WeatherDisplay:10.37 W/m2 BKN
15:10 26.1 °C 21.5 °C 1021.6 hPa ESE 14.5 km/h 14.5 km/h 76% 0 mm WeatherDisplay:10.37 W/m2 BKN
15:15 25.9 °C 21.6 °C 1021.6 hPa ESE 11.3 km/h 14.5 km/h 77% 0 mm WeatherDisplay:10.37 W/m2 BKN
15:20 26 °C 21.4 °C 1021.6 hPa East 11.3 km/h 11.3 km/h 76% 0 mm WeatherDisplay:10.37 W/m2 BKN
15:25 26.1 °C 21.3 °C 1021.6 hPa East 11.3 km/h 11.3 km/h 75% 0 mm WeatherDisplay:10.37 W/m2 BKN
15:30 26.1 °C 21.5 °C 1021.6 hPa East 11.3 km/h 11.3 km/h 76% 0 mm WeatherDisplay:10.37 W/m2 BKN
15:35 25.9 °C 21.3 °C 1021.6 hPa East 11.3 km/h 11.3 km/h 76% 0 mm WeatherDisplay:10.37 W/m2 BKN
15:40 25.8 °C 21.3 °C 1021.6 hPa East 11.3 km/h 11.3 km/h 76% 0 mm WeatherDisplay:10.37 W/m2 BKN
15:45 25.8 °C 21.4 °C 1021.2 hPa East 11.3 km/h 11.3 km/h 77% 0 mm WeatherDisplay:10.37 W/m2 BKN
15:50 25.8 °C 21.3 °C 1021.2 hPa East 11.3 km/h 11.3 km/h 76% 0 mm WeatherDisplay:10.37 W/m2 BKN
15:55 25.9 °C 21.6 °C 1021.2 hPa SE 8 km/h 11.3 km/h 77% 0 mm WeatherDisplay:10.37 W/m2 SCT
16:00 25.8 °C 21.3 °C 1021.6 hPa South 8 km/h 8 km/h 76% 0 mm WeatherDisplay:10.37 W/m2 SCT
16:05 25.8 °C 21.7 °C 1021.2 hPa South 8 km/h 8 km/h 78% 0 mm WeatherDisplay:10.37 W/m2 SCT
16:10 25.9 °C 21.8 °C 1021.2 hPa South 8 km/h 8 km/h 78% 0 mm WeatherDisplay:10.37 W/m2 SCT
16:15 25.8 °C 21.2 °C 1021.2 hPa SE 11.3 km/h 11.3 km/h 76% 0 mm WeatherDisplay:10.37 W/m2 SCT
16:20 25.7 °C 21.3 °C 1021.2 hPa SE 11.3 km/h 11.3 km/h 77% 0 mm WeatherDisplay:10.37 W/m2 SCT
16:25 25.6 °C 21.4 °C 1021.2 hPa SE 11.3 km/h 11.3 km/h 78% 0 mm WeatherDisplay:10.37 W/m2 SCT
16:30 25.4 °C 21.3 °C 1021.2 hPa SE 11.3 km/h 11.3 km/h 78% 0 mm WeatherDisplay:10.37 W/m2 SCT
16:35 25.4 °C 21.5 °C 1021.2 hPa SE 11.3 km/h 11.3 km/h 79% 0 mm WeatherDisplay:10.37 W/m2 SCT
16:40 25.3 °C 21.2 °C 1021.2 hPa SE 11.3 km/h 11.3 km/h 78% 0 mm WeatherDisplay:10.37 W/m2 SCT
16:45 25.3 °C 21.6 °C 1021.2 hPa SE 11.3 km/h 11.3 km/h 80% 0 mm WeatherDisplay:10.37 W/m2 SCT
16:50 25.3 °C 21.6 °C 1021.2 hPa SE 11.3 km/h 11.3 km/h 80% 0 mm WeatherDisplay:10.37 W/m2 SCT
16:55 25.3 °C 21.2 °C 1021.2 hPa SE 11.3 km/h 11.3 km/h 78% 0 mm WeatherDisplay:10.37 W/m2 SCT
17:00 25.4 °C 21.3 °C 1021.2 hPa SE 11.3 km/h 11.3 km/h 78% 0 mm WeatherDisplay:10.37 W/m2 SCT
17:05 25.4 °C 21.6 °C 1021.2 hPa SE 11.3 km/h 11.3 km/h 79% 0 mm WeatherDisplay:10.37 W/m2 SCT
17:10 25.4 °C 21.6 °C 1021.2 hPa SE 11.3 km/h 11.3 km/h 79% 0 mm WeatherDisplay:10.37 W/m2 SCT
17:15 25.4 °C 21.3 °C 1021.2 hPa SE 12.9 km/h 12.9 km/h 78% 0 mm WeatherDisplay:10.37 W/m2 SCT
17:20 25.3 °C 21.4 °C 1021.2 hPa ESE 12.9 km/h 12.9 km/h 79% 0 mm WeatherDisplay:10.37 W/m2 SCT
17:25 25.2 °C 21.5 °C 1021.2 hPa ESE 12.9 km/h 12.9 km/h 80% 0 mm WeatherDisplay:10.37 W/m2 SCT
17:30 25.1 °C 21.4 °C 1021.2 hPa ESE 12.9 km/h 12.9 km/h 80% 0 mm WeatherDisplay:10.37 W/m2 SCT
17:35 24.9 °C 21.4 °C 1021.2 hPa ESE 12.9 km/h 12.9 km/h 81% 0 mm WeatherDisplay:10.37 W/m2 SCT
17:40 24.9 °C 21.4 °C 1021.2 hPa ESE 12.9 km/h 12.9 km/h 81% 0 mm WeatherDisplay:10.37 W/m2 SCT
17:45 24.9 °C 21.3 °C 1021.2 hPa ESE 12.9 km/h 12.9 km/h 80% 0 mm WeatherDisplay:10.37 W/m2 SCT
17:50 25 °C 21.3 °C 1021.2 hPa ESE 12.9 km/h 12.9 km/h 80% 0 mm WeatherDisplay:10.37 W/m2 SCT
17:55 25 °C 21.3 °C 1021.2 hPa ESE 12.9 km/h 12.9 km/h 80% 0 mm WeatherDisplay:10.37 W/m2 SCT
18:00 24.9 °C 21.3 °C 1021.2 hPa ESE 12.9 km/h 12.9 km/h 80% 0 mm WeatherDisplay:10.37 W/m2 SCT
18:05 24.9 °C 21.2 °C 1020.9 hPa ESE 12.9 km/h 12.9 km/h 80% 0 mm WeatherDisplay:10.37 W/m2 SCT
18:10 24.8 °C 21.2 °C 1021.2 hPa ESE 12.9 km/h 12.9 km/h 80% 0 mm WeatherDisplay:10.37 W/m2 SCT
18:15 24.8 °C 21.3 °C 1021.2 hPa East 4.8 km/h 12.9 km/h 81% 0 mm WeatherDisplay:10.37 W/m2 FEW
18:20 24.7 °C 21.4 °C 1021.2 hPa ENE 4.8 km/h 4.8 km/h 82% 0 mm WeatherDisplay:10.37 W/m2 FEW
18:25 24.6 °C 21.3 °C 1021.2 hPa ENE 4.8 km/h 4.8 km/h 82% 0 mm WeatherDisplay:10.37 W/m2 FEW
18:30 24.4 °C 21.4 °C 1021.2 hPa ENE 4.8 km/h 4.8 km/h 83% 0 mm WeatherDisplay:10.37 W/m2 FEW
18:40 24.3 °C 21.2 °C 1021.2 hPa ENE 4.8 km/h 4.8 km/h 83% 0 mm WeatherDisplay:10.37 W/m2 FEW
18:45 24.2 °C 21.2 °C 1021.2 hPa ENE 4.8 km/h 4.8 km/h 83% 0 mm WeatherDisplay:10.37 W/m2 FEW
18:50 24.2 °C 21.1 °C 1021.6 hPa ENE 4.8 km/h 4.8 km/h 83% 0 mm WeatherDisplay:10.37 W/m2 FEW
18:55 24 °C 20.9 °C 1021.2 hPa ENE 4.8 km/h 4.8 km/h 83% 0 mm WeatherDisplay:10.37 W/m2 FEW
19:00 23.9 °C 20.8 °C 1021.6 hPa ENE 4.8 km/h 4.8 km/h 83% 0 mm WeatherDisplay:10.37 W/m2 FEW
19:05 23.8 °C 20.9 °C 1021.6 hPa ENE 4.8 km/h 4.8 km/h 84% 0 mm WeatherDisplay:10.37 W/m2 FEW
19:10 23.7 °C 20.8 °C 1021.6 hPa ENE 4.8 km/h 4.8 km/h 84% 0 mm WeatherDisplay:10.37 W/m2 FEW
19:15 23.5 °C 20.8 °C 1021.6 hPa ENE 4.8 km/h 4.8 km/h 85% 0 mm WeatherDisplay:10.37 W/m2 FEW
19:20 23.3 °C 20.7 °C 1021.6 hPa ENE 4.8 km/h 4.8 km/h 85% 0 mm WeatherDisplay:10.37 W/m2 FEW
19:25 23.3 °C 20.6 °C 1021.6 hPa ENE 4.8 km/h 4.8 km/h 85% 0 mm WeatherDisplay:10.37 W/m2 FEW
19:30 23.2 °C 20.7 °C 1021.6 hPa ENE 4.8 km/h 4.8 km/h 86% 0 mm WeatherDisplay:10.37 W/m2 FEW
19:35 23.1 °C 20.6 °C 1021.9 hPa ENE 4.8 km/h 4.8 km/h 86% 0 mm WeatherDisplay:10.37 W/m2 FEW
19:40 23 °C 20.5 °C 1021.9 hPa ENE 4.8 km/h 4.8 km/h 86% 0 mm WeatherDisplay:10.37 W/m2 FEW
19:45 22.9 °C 20.5 °C 1021.9 hPa ENE 4.8 km/h 4.8 km/h 86% 0 mm WeatherDisplay:10.37 W/m2 FEW
19:50 22.9 °C 20.4 °C 1021.9 hPa ENE 4.8 km/h 4.8 km/h 86% 0 mm WeatherDisplay:10.37 W/m2 FEW
19:55 22.8 °C 20.4 °C 1021.9 hPa ENE 4.8 km/h 4.8 km/h 86% 0 mm WeatherDisplay:10.37 W/m2 FEW
20:00 22.8 °C 20.4 °C 1021.9 hPa ENE 4.8 km/h 4.8 km/h 86% 0 mm WeatherDisplay:10.37 W/m2 FEW
20:05 22.8 °C 20.3 °C 1021.9 hPa ENE 4.8 km/h 4.8 km/h 86% 0 mm WeatherDisplay:10.37 W/m2 FEW
20:10 22.7 °C 20.2 °C 1021.9 hPa ENE 4.8 km/h 4.8 km/h 86% 0 mm WeatherDisplay:10.37 W/m2 FEW
20:15 22.6 °C 20.2 °C 1022.2 hPa ENE 4.8 km/h 4.8 km/h 86% 0 mm WeatherDisplay:10.37 W/m2 FEW
20:20 22.6 °C 20.1 °C 1022.2 hPa ENE 4.8 km/h 4.8 km/h 86% 0 mm WeatherDisplay:10.37 W/m2 FEW
20:25 22.4 °C 20 °C 1022.2 hPa ENE 4.8 km/h 4.8 km/h 86% 0 mm WeatherDisplay:10.37 W/m2 FEW
20:30 22.4 °C 19.9 °C 1022.2 hPa ENE 4.8 km/h 4.8 km/h 86% 0 mm WeatherDisplay:10.37 W/m2 FEW
20:40 22.3 °C 19.8 °C 1022.2 hPa ENE 4.8 km/h 4.8 km/h 86% 0 mm WeatherDisplay:10.37 W/m2 FEW
20:45 22.2 °C 19.7 °C 1022.2 hPa ENE 11.3 km/h 11.3 km/h 86% 0 mm WeatherDisplay:10.37 W/m2 BKN
20:50 22.1 °C 19.7 °C 1022.2 hPa East 11.3 km/h 11.3 km/h 86% 0 mm WeatherDisplay:10.37 W/m2 BKN
20:55 22 °C 19.6 °C 1022.2 hPa East 11.3 km/h 11.3 km/h 86% 0 mm WeatherDisplay:10.37 W/m2 BKN
21:00 21.9 °C 19.5 °C 1022.2 hPa East 11.3 km/h 11.3 km/h 86% 0 mm WeatherDisplay:10.37 W/m2 BKN
21:05 21.9 °C 19.6 °C 1022.6 hPa East 11.3 km/h 11.3 km/h 87% 0 mm WeatherDisplay:10.37 W/m2 BKN
21:10 21.8 °C 19.5 °C 1022.6 hPa East 11.3 km/h 11.3 km/h 87% 0 mm WeatherDisplay:10.37 W/m2 BKN
21:15 21.7 °C 19.4 °C 1022.6 hPa East 12.9 km/h 12.9 km/h 87% 0 mm WeatherDisplay:10.37 W/m2 BKN
21:20 21.7 °C 19.4 °C 1022.6 hPa East 12.9 km/h 12.9 km/h 87% 0 mm WeatherDisplay:10.37 W/m2 BKN
21:25 21.6 °C 19.3 °C 1022.6 hPa East 12.9 km/h 12.9 km/h 87% 0 mm WeatherDisplay:10.37 W/m2 BKN
21:30 21.6 °C 19.3 °C 1022.6 hPa East 12.9 km/h 12.9 km/h 87% 0 mm WeatherDisplay:10.37 W/m2 BKN
21:35 21.6 °C 19.3 °C 1022.9 hPa East 12.9 km/h 12.9 km/h 87% 0 mm WeatherDisplay:10.37 W/m2 BKN
21:40 21.5 °C 19.2 °C 1022.6 hPa East 12.9 km/h 12.9 km/h 87% 0 mm WeatherDisplay:10.37 W/m2 BKN
21:45 21.4 °C 19.2 °C 1022.9 hPa East 12.9 km/h 12.9 km/h 87% 0 mm WeatherDisplay:10.37 W/m2 BKN
21:50 21.4 °C 19.1 °C 1022.9 hPa East 12.9 km/h 12.9 km/h 87% 0 mm WeatherDisplay:10.37 W/m2 BKN
21:55 21.3 °C 19.1 °C 1022.9 hPa East 12.9 km/h 12.9 km/h 87% 0 mm WeatherDisplay:10.37 W/m2 BKN
22:00 21.2 °C 19.2 °C 1022.9 hPa East 12.9 km/h 12.9 km/h 88% 0 mm WeatherDisplay:10.37 W/m2 BKN
22:05 21.2 °C 19.1 °C 1022.9 hPa East 12.9 km/h 12.9 km/h 88% 0 mm WeatherDisplay:10.37 W/m2 BKN
22:10 21.1 °C 19.1 °C 1022.9 hPa East 12.9 km/h 12.9 km/h 88% 0 mm WeatherDisplay:10.37 W/m2 BKN
22:15 21.1 °C 19 °C 1023.2 hPa East 14.5 km/h 14.5 km/h 88% 0 mm WeatherDisplay:10.37 W/m2 BKN
22:20 21.1 °C 19 °C 1023.2 hPa East 14.5 km/h 14.5 km/h 88% 0 mm WeatherDisplay:10.37 W/m2 BKN
22:25 21.1 °C 19.1 °C 1023.2 hPa East 14.5 km/h 14.5 km/h 88% 0 mm WeatherDisplay:10.37 W/m2 BKN
22:30 21.1 °C 19.1 °C 1023.2 hPa East 14.5 km/h 14.5 km/h 88% 0 mm WeatherDisplay:10.37 W/m2 BKN
22:40 21.2 °C 18.9 °C 1023.6 hPa East 14.5 km/h 14.5 km/h 87% 0 mm WeatherDisplay:10.37 W/m2 BKN
22:45 21.2 °C 18.9 °C 1023.6 hPa East 14.5 km/h 14.5 km/h 87% 0 mm WeatherDisplay:10.37 W/m2 BKN
22:50 21.2 °C 18.9 °C 1023.6 hPa East 14.5 km/h 14.5 km/h 87% 0 mm WeatherDisplay:10.37 W/m2 BKN
22:55 21.2 °C 18.9 °C 1023.6 hPa East 14.5 km/h 14.5 km/h 87% 0 mm WeatherDisplay:10.37 W/m2 BKN
23:00 21.2 °C 18.9 °C 1023.6 hPa East 14.5 km/h 14.5 km/h 87% 0 mm WeatherDisplay:10.37 W/m2 BKN
23:05 21.2 °C 18.9 °C 1023.6 hPa East 14.5 km/h 14.5 km/h 87% 0 mm WeatherDisplay:10.37 W/m2 BKN
23:10 21.1 °C 18.9 °C 1023.6 hPa East 14.5 km/h 14.5 km/h 87% 0 mm WeatherDisplay:10.37 W/m2 BKN
23:15 21.2 °C 18.9 °C 1023.6 hPa East 12.9 km/h 14.5 km/h 87% 0 mm WeatherDisplay:10.37 W/m2 OVC
23:20 21.1 °C 18.9 °C 1023.6 hPa East 12.9 km/h 12.9 km/h 87% 0 mm WeatherDisplay:10.37 W/m2 OVC
23:25 21.1 °C 18.9 °C 1023.6 hPa East 12.9 km/h 12.9 km/h 87% 0 mm WeatherDisplay:10.37 W/m2 OVC
23:30 21.1 °C 18.9 °C 1023.6 hPa East 12.9 km/h 12.9 km/h 87% 0 mm WeatherDisplay:10.37 W/m2 OVC
23:35 21.1 °C 18.9 °C 1023.6 hPa East 12.9 km/h 12.9 km/h 87% 0 mm WeatherDisplay:10.37 W/m2 OVC
23:40 21.1 °C 18.9 °C 1023.9 hPa East 12.9 km/h 12.9 km/h 87% 0 mm WeatherDisplay:10.37 W/m2 OVC
23:45 21.1 °C 18.8 °C 1023.9 hPa East 12.9 km/h 12.9 km/h 87% 0 mm WeatherDisplay:10.37 W/m2 OVC
23:50 21.1 °C 18.8 °C 1023.6 hPa East 12.9 km/h 12.9 km/h 87% 0 mm WeatherDisplay:10.37 W/m2 OVC
23:55 21.1 °C 18.8 °C 1023.6 hPa East 12.9 km/h 12.9 km/h 87% 0 mm WeatherDisplay:10.37 W/m2 OVC
Piedmont Bend
Compliments of Weather Underground - 4 mb